createdAt,value
2023-01-04T00:02:04.104Z,101403.88
2023-01-04T00:04:30.536Z,101403.44
2023-01-04T00:06:57.230Z,101410.25
2023-01-04T00:09:23.595Z,101401.16
2023-01-04T00:11:50.009Z,101390.97
2023-01-04T00:14:18.561Z,101380.72
2023-01-04T00:16:45.194Z,101392.19
2023-01-04T00:19:12.773Z,101370.56
2023-01-04T00:21:39.211Z,101382.50
2023-01-04T00:24:05.859Z,101355.53
2023-01-04T00:26:33.894Z,101344.66
2023-01-04T00:29:05.772Z,101352.97
2023-01-04T00:31:33.306Z,101348.53
2023-01-04T00:34:01.765Z,101352.81
2023-01-04T00:36:28.869Z,101362.22
2023-01-04T00:39:08.650Z,101340.34
2023-01-04T00:42:05.008Z,101323.09
2023-01-04T00:44:35.235Z,101314.84
2023-01-04T00:47:02.746Z,101322.09
2023-01-04T00:49:29.895Z,101312.06
2023-01-04T00:51:56.311Z,101302.69
2023-01-04T00:54:23.138Z,101301.13
2023-01-04T00:56:49.647Z,101303.72
2023-01-04T00:59:17.929Z,101296.47
2023-01-04T01:01:44.892Z,101281.44
2023-01-04T01:04:13.222Z,101288.38
2023-01-04T01:06:40.303Z,101275.38
2023-01-04T01:09:07.057Z,101275.69
2023-01-04T01:11:34.204Z,101273.25
2023-01-04T01:14:00.576Z,101265.78
2023-01-04T01:16:53.224Z,101265.16
2023-01-04T01:19:16.018Z,101261.34
2023-01-04T01:21:42.472Z,101256.66
2023-01-04T01:24:19.441Z,101258.75
2023-01-04T01:26:46.211Z,101252.28
2023-01-04T01:29:12.610Z,101242.22
2023-01-04T01:31:40.625Z,101248.31
2023-01-04T01:34:07.163Z,101235.91
2023-01-04T01:36:33.823Z,101238.66
2023-01-04T01:39:00.211Z,101234.13
2023-01-04T01:41:29.792Z,101224.44
2023-01-04T01:43:59.197Z,101221.72
2023-01-04T01:46:44.625Z,101219.63
2023-01-04T01:49:25.772Z,101219.63
2023-01-04T01:51:53.200Z,101229.31
2023-01-04T01:54:29.041Z,101208.16
2023-01-04T01:56:58.162Z,101205.69
2023-01-04T01:59:25.082Z,101207.78
2023-01-04T02:01:51.571Z,101204.09
2023-01-04T02:04:18.053Z,101197.13
2023-01-04T02:06:52.883Z,101191.69
2023-01-04T02:09:19.570Z,101200.44
2023-01-04T02:11:46.196Z,101182.72
2023-01-04T02:14:28.961Z,101179.34
2023-01-04T02:17:09.791Z,101190.44
2023-01-04T02:19:54.969Z,101182.22
2023-01-04T02:22:46.160Z,101186.06
2023-01-04T02:25:39.767Z,101175.06
2023-01-04T02:28:28.781Z,101174.78
2023-01-04T02:31:00.456Z,101179.72
2023-01-04T02:33:48.232Z,101181.53
2023-01-04T02:36:30.677Z,101166.28
2023-01-04T02:39:00.072Z,101166.34
2023-01-04T02:41:38.551Z,101152.44
2023-01-04T02:44:23.520Z,101153.13
2023-01-04T02:47:11.691Z,101171.50
2023-01-04T02:50:04.027Z,101150.44
2023-01-04T02:52:31.357Z,101156.56
2023-01-04T02:54:58.173Z,101135.97
2023-01-04T02:57:51.080Z,101138.59
2023-01-04T03:01:10.780Z,101137.06
2023-01-04T03:04:21.576Z,101141.16
2023-01-04T03:06:58.620Z,101137.84
2023-01-04T03:09:29.497Z,101126.63
2023-01-04T03:12:23.261Z,101119.03
2023-01-04T03:15:00.262Z,101126.63
2023-01-04T03:17:28.293Z,101127.53
2023-01-04T03:19:56.268Z,101106.16
2023-01-04T03:22:53.885Z,101115.22
2023-01-04T03:25:42.324Z,101112.97
2023-01-04T03:28:29.741Z,101106.63
2023-01-04T03:31:25.480Z,101117.50
2023-01-04T03:34:10.600Z,101092.66
2023-01-04T03:36:45.269Z,101085.41
2023-01-04T03:39:35.467Z,101091.63
2023-01-04T03:42:32.562Z,101091.16
2023-01-04T03:45:41.296Z,101073.59
2023-01-04T03:48:34.487Z,101065.88
2023-01-04T03:51:14.432Z,101077.22
2023-01-04T03:54:04.237Z,101067.34
2023-01-04T03:56:32.378Z,101065.06
2023-01-04T03:58:59.058Z,101068.22
2023-01-04T04:01:26.776Z,101062.28
2023-01-04T04:04:12.472Z,101058.59
2023-01-04T04:06:58.001Z,101070.84
2023-01-04T04:09:24.486Z,101050.38
2023-01-04T04:11:50.874Z,101054.50
2023-01-04T04:14:17.347Z,101055.88
2023-01-04T04:16:43.788Z,101053.16
2023-01-04T04:19:10.204Z,101062.22
2023-01-04T04:21:37.151Z,101055.53
2023-01-04T04:24:04.016Z,101052.94
2023-01-04T04:26:30.559Z,101042.66
2023-01-04T04:28:56.908Z,101027.69
2023-01-04T04:31:23.341Z,100996.50
2023-01-04T04:33:49.778Z,101004.38
2023-01-04T04:36:16.167Z,100999.06
2023-01-04T04:38:42.523Z,101006.81
2023-01-04T04:41:29.415Z,101007.84
2023-01-04T04:43:55.813Z,100989.97
2023-01-04T04:46:22.520Z,101004.94
2023-01-04T04:48:49.131Z,100996.56
2023-01-04T04:51:15.546Z,101003.88
2023-01-04T04:53:41.991Z,100997.84
2023-01-04T04:56:09.083Z,100992.19
2023-01-04T04:58:35.862Z,101009.16
2023-01-04T05:01:02.319Z,100995.53
2023-01-04T05:03:28.771Z,100975.81
2023-01-04T05:05:55.201Z,100973.03
2023-01-04T05:08:21.599Z,100998.81
2023-01-04T05:10:48.029Z,100994.69
2023-01-04T05:13:14.405Z,100979.16
2023-01-04T05:15:44.011Z,100985.34
2023-01-04T05:18:12.214Z,100984.44
2023-01-04T05:20:38.706Z,100980.06
2023-01-04T05:23:06.395Z,100988.59
2023-01-04T05:25:33.106Z,100992.22
2023-01-04T05:27:59.720Z,100974.59
2023-01-04T05:30:44.772Z,100975.13
2023-01-04T05:33:11.717Z,100979.16
2023-01-04T05:35:38.119Z,100968.34
2023-01-04T05:38:04.646Z,100959.72
2023-01-04T05:40:31.160Z,100966.44
2023-01-04T05:42:57.545Z,100968.88
2023-01-04T05:45:24.029Z,100953.25
2023-01-04T05:47:51.705Z,100937.03
2023-01-04T05:50:19.753Z,100961.53
2023-01-04T05:52:46.638Z,100958.59
2023-01-04T05:55:13.328Z,100983.22
2023-01-04T05:57:39.874Z,100960.28
2023-01-04T06:00:07.386Z,100947.78
2023-01-04T06:02:33.910Z,100960.28
2023-01-04T06:05:00.409Z,100938.25
2023-01-04T06:07:28.093Z,100948.56
2023-01-04T06:09:54.560Z,100942.50
2023-01-04T06:12:21.168Z,100934.25
2023-01-04T06:14:47.567Z,100934.00
2023-01-04T06:17:14.023Z,100924.72
2023-01-04T06:19:40.452Z,100902.53
2023-01-04T06:22:07.443Z,100928.63
2023-01-04T06:24:34.069Z,100930.44
2023-01-04T06:27:01.322Z,100910.06
2023-01-04T06:29:27.934Z,100916.38
2023-01-04T06:31:54.850Z,100910.31
2023-01-04T06:34:25.432Z,100901.28
2023-01-04T06:36:55.180Z,100894.84
2023-01-04T06:39:21.624Z,100894.59
2023-01-04T06:41:48.119Z,100887.84
2023-01-04T06:44:14.689Z,100883.75
2023-01-04T06:46:41.262Z,100889.16
2023-01-04T06:49:07.712Z,100893.03
2023-01-04T06:51:34.101Z,100885.53
2023-01-04T06:54:00.466Z,100885.69
2023-01-04T06:56:26.912Z,100881.16
2023-01-04T06:58:53.347Z,100875.19
2023-01-04T07:01:19.790Z,100888.91
2023-01-04T07:03:46.267Z,100875.19
2023-01-04T07:06:12.635Z,100873.66
2023-01-04T07:08:39.029Z,100855.59
2023-01-04T07:11:05.497Z,100868.09
2023-01-04T07:13:31.907Z,100863.34
2023-01-04T07:15:58.394Z,100880.00
2023-01-04T07:18:24.825Z,100886.81
2023-01-04T07:20:51.215Z,100892.50
2023-01-04T07:23:17.815Z,100884.00
2023-01-04T07:25:44.415Z,100894.56
2023-01-04T07:28:10.885Z,100892.91
2023-01-04T07:30:37.324Z,100901.41
2023-01-04T07:33:03.804Z,100894.56
2023-01-04T07:35:30.182Z,100897.16
2023-01-04T07:37:59.003Z,100893.66
2023-01-04T07:40:26.825Z,100904.88
2023-01-04T07:42:58.152Z,100902.19
2023-01-04T07:45:25.061Z,100900.88
2023-01-04T07:47:51.510Z,100912.66
2023-01-04T07:50:18.009Z,100918.69
2023-01-04T07:52:44.458Z,100913.94
2023-01-04T07:55:10.894Z,100913.94
2023-01-04T07:57:37.291Z,100899.47
2023-01-04T08:00:04.897Z,100897.28
2023-01-04T08:02:31.423Z,100897.28
2023-01-04T08:04:57.959Z,100883.22
2023-01-04T08:07:24.436Z,100888.91
2023-01-04T08:09:50.813Z,100893.53
2023-01-04T08:12:17.233Z,100900.50
2023-01-04T08:14:43.592Z,100893.78
2023-01-04T08:17:10.102Z,100884.63
2023-01-04T08:19:36.515Z,100860.63
2023-01-04T08:22:02.951Z,100870.56
2023-01-04T08:24:29.393Z,100866.56
2023-01-04T08:26:56.221Z,100860.09
2023-01-04T08:29:22.658Z,100864.59
2023-01-04T08:31:49.114Z,100871.81
2023-01-04T08:34:16.998Z,100865.91
2023-01-04T08:36:51.048Z,100854.00
2023-01-04T08:39:17.567Z,100861.63
2023-01-04T08:42:00.802Z,100862.53
2023-01-04T08:44:31.572Z,100847.06
2023-01-04T08:46:58.836Z,100841.38
2023-01-04T08:49:25.411Z,100849.88
2023-01-04T08:51:52.145Z,100844.97
2023-01-04T08:54:18.631Z,100826.34
2023-01-04T08:56:45.196Z,100827.63
2023-01-04T08:59:13.037Z,100836.56
2023-01-04T09:01:40.272Z,100838.97
2023-01-04T09:04:07.478Z,100831.72
2023-01-04T09:06:34.396Z,100823.69
2023-01-04T09:09:00.842Z,100815.41
2023-01-04T09:11:27.321Z,100823.63
2023-01-04T09:14:06.821Z,100811.19
2023-01-04T09:16:34.918Z,100810.13
2023-01-04T09:19:01.392Z,100810.84
2023-01-04T09:21:28.201Z,100798.16
2023-01-04T09:23:56.835Z,100800.19
2023-01-04T09:26:23.697Z,100792.00
2023-01-04T09:28:51.843Z,100795.25
2023-01-04T09:31:20.597Z,100793.06
2023-01-04T09:34:13.239Z,100784.38
2023-01-04T09:36:33.648Z,100788.00
2023-01-04T09:39:00.023Z,100777.78
2023-01-04T09:41:27.616Z,100795.66
2023-01-04T09:43:55.137Z,100795.22
2023-01-04T09:46:51.037Z,100805.66
2023-01-04T09:49:21.473Z,100814.44
2023-01-04T09:52:10.998Z,100811.19
2023-01-04T09:54:54.122Z,100817.69
2023-01-04T09:57:24.311Z,100800.59
2023-01-04T10:00:10.254Z,100812.09
2023-01-04T10:02:43.032Z,100803.91
2023-01-04T10:05:18.216Z,100790.44
2023-01-04T10:07:44.626Z,100800.00
2023-01-04T10:10:16.276Z,100782.34
2023-01-04T10:12:48.102Z,100801.50
2023-01-04T10:15:27.070Z,100798.09
2023-01-04T10:19:23.553Z,100787.75
2023-01-04T10:23:51.616Z,100766.09
2023-01-04T10:26:25.553Z,100777.00
2023-01-04T10:29:27.315Z,100760.28
2023-01-04T10:32:00.536Z,100762.66
2023-01-04T10:34:42.353Z,100765.91
2023-01-04T10:37:15.955Z,100763.25
2023-01-04T10:39:43.245Z,100757.59
2023-01-04T10:42:21.450Z,100749.63
2023-01-04T10:45:18.053Z,100758.06
2023-01-04T10:47:55.684Z,100759.25
2023-01-04T10:50:31.212Z,100763.41
2023-01-04T10:53:17.602Z,100753.59
2023-01-04T10:56:24.029Z,100748.09
2023-01-04T10:59:01.820Z,100766.88
2023-01-04T11:01:41.905Z,100757.31
2023-01-04T11:04:33.979Z,100764.06
2023-01-04T11:07:05.600Z,100746.41
2023-01-04T11:09:42.616Z,100757.78
2023-01-04T11:12:11.195Z,100736.28
2023-01-04T11:14:37.826Z,100729.66
2023-01-04T11:17:05.778Z,100742.81
2023-01-04T11:19:32.904Z,100735.03
2023-01-04T11:22:26.277Z,100726.50
2023-01-04T11:25:34.014Z,100730.38
2023-01-04T11:27:48.328Z,100709.22
2023-01-04T11:30:24.464Z,100710.56
2023-01-04T11:33:00.960Z,100697.53
2023-01-04T11:35:42.572Z,100701.78
2023-01-04T11:38:14.329Z,100693.22
2023-01-04T11:40:41.247Z,100704.25
2023-01-04T11:43:18.873Z,100681.88
2023-01-04T11:46:04.287Z,100677.38
2023-01-04T11:48:32.211Z,100696.38
2023-01-04T11:50:58.678Z,100684.00
2023-01-04T11:53:36.411Z,100702.34
2023-01-04T11:56:18.803Z,100692.00
2023-01-04T11:59:05.182Z,100690.84
2023-01-04T12:01:33.860Z,100688.25
2023-01-04T12:04:00.535Z,100679.50
2023-01-04T12:06:35.388Z,100676.91
2023-01-04T12:09:02.316Z,100698.16
2023-01-04T12:11:31.560Z,100687.00
2023-01-04T12:14:02.052Z,100680.16
2023-01-04T12:16:40.646Z,100688.47
2023-01-04T12:19:07.580Z,100692.97
2023-01-04T12:21:34.920Z,100687.34
2023-01-04T12:24:02.100Z,100694.19
2023-01-04T12:26:28.488Z,100682.19
2023-01-04T12:29:23.124Z,100674.53
2023-01-04T12:31:54.267Z,100690.84
2023-01-04T12:34:24.043Z,100675.53
2023-01-04T12:36:50.304Z,100701.69
2023-01-04T12:39:16.766Z,100679.91
2023-01-04T12:41:43.366Z,100686.69
2023-01-04T12:44:38.682Z,100678.56
2023-01-04T12:47:49.992Z,100673.50
2023-01-04T12:50:19.446Z,100669.56
2023-01-04T12:53:11.268Z,100652.25
2023-01-04T12:55:44.112Z,100638.09
2023-01-04T12:59:24.178Z,100649.00
2023-01-04T13:01:27.829Z,100661.38
2023-01-04T13:04:04.268Z,100659.94
2023-01-04T13:06:34.467Z,100668.81
2023-01-04T13:09:01.608Z,100657.88
2023-01-04T13:11:36.503Z,100645.28
2023-01-04T13:14:11.857Z,100643.94
2023-01-04T13:16:47.252Z,100657.66
2023-01-04T13:19:25.219Z,100667.66
2023-01-04T13:21:52.862Z,100684.22
2023-01-04T13:24:34.156Z,100673.19
2023-01-04T13:27:10.200Z,100668.13
2023-01-04T13:29:37.089Z,100672.72
2023-01-04T13:32:04.789Z,100656.38
2023-01-04T13:34:40.095Z,100644.47
2023-01-04T13:37:13.481Z,100645.59
2023-01-04T13:39:50.466Z,100650.53
2023-01-04T13:42:24.143Z,100655.59
2023-01-04T13:45:21.799Z,100649.75
2023-01-04T13:47:52.984Z,100641.09
2023-01-04T13:50:25.293Z,100634.09
2023-01-04T13:53:05.687Z,100640.84
2023-01-04T13:55:35.208Z,100637.69
2023-01-04T13:58:04.205Z,100633.84
2023-01-04T14:00:43.189Z,100637.78
2023-01-04T14:03:31.499Z,100630.47
2023-01-04T14:06:09.699Z,100625.97
2023-01-04T14:08:41.819Z,100618.97
2023-01-04T14:11:36.711Z,100608.53
2023-01-04T14:14:12.775Z,100604.03
2023-01-04T14:16:39.173Z,100605.94
2023-01-04T14:19:32.421Z,100602.91
2023-01-04T14:21:58.889Z,100571.34
2023-01-04T14:25:07.885Z,100600.34
2023-01-04T14:27:39.269Z,100600.78
2023-01-04T14:30:17.863Z,100600.41
2023-01-04T14:32:58.408Z,100587.66
2023-01-04T14:35:25.504Z,100591.75
2023-01-04T14:37:52.096Z,100588.47
2023-01-04T14:40:24.499Z,100605.22
2023-01-04T14:42:50.866Z,100608.81
2023-01-04T14:45:17.431Z,100606.53
2023-01-04T14:47:43.833Z,100595.97
2023-01-04T14:50:13.078Z,100597.97
2023-01-04T14:52:39.764Z,100598.56
2023-01-04T14:55:06.971Z,100605.78
2023-01-04T14:57:33.354Z,100610.38
2023-01-04T14:59:59.717Z,100596.50
2023-01-04T15:02:27.044Z,100613.63
2023-01-04T15:04:53.596Z,100606.44
2023-01-04T15:07:40.313Z,100616.38
2023-01-04T15:10:15.624Z,100611.38
2023-01-04T15:12:41.969Z,100610.22
2023-01-04T15:15:09.037Z,100611.84
2023-01-04T15:17:35.487Z,100612.81
2023-01-04T15:20:01.844Z,100594.69
2023-01-04T15:22:28.232Z,100620.97
2023-01-04T15:24:54.594Z,100623.66
2023-01-04T15:27:24.469Z,100622.66
2023-01-04T15:29:55.356Z,100607.13
2023-01-04T15:32:21.821Z,100590.94
2023-01-04T15:34:51.667Z,100584.88
2023-01-04T15:37:23.890Z,100595.47
2023-01-04T15:39:52.290Z,100588.16
2023-01-04T15:42:39.132Z,100583.88
2023-01-04T15:45:06.274Z,100586.59
2023-01-04T15:47:33.915Z,100587.88
2023-01-04T15:50:00.554Z,100599.09
2023-01-04T15:52:27.428Z,100608.88
2023-01-04T15:54:53.893Z,100606.31
2023-01-04T15:57:20.282Z,100599.19
2023-01-04T15:59:47.616Z,100609.16
2023-01-04T16:02:14.888Z,100606.78
2023-01-04T16:04:41.322Z,100606.94
2023-01-04T16:07:07.721Z,100600.59
2023-01-04T16:09:34.124Z,100603.38
2023-01-04T16:12:19.240Z,100596.19
2023-01-04T16:14:45.617Z,100595.75
2023-01-04T16:17:11.986Z,100586.19
2023-01-04T16:19:38.344Z,100585.03
2023-01-04T16:22:04.747Z,100598.56
2023-01-04T16:25:09.267Z,100596.41
2023-01-04T16:27:17.847Z,100590.63
2023-01-04T16:29:44.256Z,100584.72
2023-01-04T16:32:10.694Z,100578.84
2023-01-04T16:34:37.289Z,100587.91
2023-01-04T16:37:03.917Z,100571.97
2023-01-04T16:42:16.691Z,100558.22
2023-01-04T16:44:43.101Z,100565.06
2023-01-04T16:47:09.512Z,100566.59
2023-01-04T16:49:35.981Z,100564.38
2023-01-04T16:52:02.366Z,100569.19
2023-01-04T16:54:28.737Z,100567.50
2023-01-04T16:56:58.419Z,100551.47
2023-01-04T16:59:24.994Z,100554.16
2023-01-04T17:01:57.536Z,100549.84
2023-01-04T17:04:24.553Z,100551.66
2023-01-04T17:06:53.079Z,100547.69
2023-01-04T17:09:21.095Z,100557.16
2023-01-04T17:12:46.302Z,100552.56
2023-01-04T17:14:43.364Z,100556.06
2023-01-04T17:17:10.030Z,100555.28
2023-01-04T17:19:36.555Z,100562.22
2023-01-04T17:22:02.964Z,100567.91
2023-01-04T17:24:29.386Z,100561.63
2023-01-04T17:26:55.770Z,100559.84
2023-01-04T17:29:22.167Z,100559.84
2023-01-04T17:31:48.629Z,100563.69
2023-01-04T17:34:22.503Z,100562.38
2023-01-04T17:36:49.584Z,100555.72
2023-01-04T17:39:16.001Z,100552.81
2023-01-04T17:41:42.464Z,100539.75
2023-01-04T17:44:10.533Z,100544.13
2023-01-04T17:46:37.705Z,100542.25
2023-01-04T17:49:25.577Z,100551.03
2023-01-04T17:51:55.170Z,100557.69
2023-01-04T17:54:22.882Z,100571.91
2023-01-04T17:56:49.266Z,100573.19
2023-01-04T17:59:15.650Z,100574.53
2023-01-04T18:01:42.038Z,100575.88
2023-01-04T18:04:09.097Z,100579.84
2023-01-04T18:06:36.379Z,100575.28
2023-01-04T18:09:04.504Z,100560.19
2023-01-04T18:11:31.089Z,100558.13
2023-01-04T18:13:57.875Z,100576.94
2023-01-04T18:16:28.794Z,100580.38
2023-01-04T18:18:57.287Z,100577.09
2023-01-04T18:21:29.845Z,100596.31
2023-01-04T18:27:19.376Z,100572.31
2023-01-04T18:29:31.594Z,100578.75
2023-01-04T18:31:58.027Z,100573.69
2023-01-04T18:34:26.437Z,100569.56
2023-01-04T18:36:53.010Z,100572.25
2023-01-04T18:39:19.408Z,100580.56
2023-01-04T18:41:46.107Z,100580.84
2023-01-04T18:44:32.047Z,100573.78
2023-01-04T18:46:58.912Z,100577.69
2023-01-04T18:49:25.290Z,100585.56
2023-01-04T18:51:51.657Z,100589.47
2023-01-04T18:54:20.611Z,100578.69
2023-01-04T18:56:47.480Z,100587.75
2023-01-04T18:59:16.914Z,100598.59
2023-01-04T19:01:43.941Z,100589.56
2023-01-04T19:04:12.285Z,100601.31
2023-01-04T19:06:40.198Z,100588.44
2023-01-04T19:09:07.274Z,100584.44
2023-01-04T19:11:34.367Z,100577.53
2023-01-04T19:14:00.797Z,100583.75
2023-01-04T19:16:30.824Z,100577.38
2023-01-04T19:18:59.418Z,100570.81
2023-01-04T19:21:25.865Z,100597.94
2023-01-04T19:23:52.564Z,100584.38
2023-01-04T19:26:19.073Z,100586.97
2023-01-04T19:28:45.461Z,100585.56
2023-01-04T19:31:13.028Z,100575.78
2023-01-04T19:33:39.496Z,100573.78
2023-01-04T19:36:10.626Z,100572.00
2023-01-04T19:38:37.481Z,100581.25
2023-01-04T19:41:05.203Z,100577.97
2023-01-04T19:43:31.587Z,100582.72
2023-01-04T19:45:58.148Z,100595.09
2023-01-04T19:48:24.726Z,100596.25
2023-01-04T19:51:06.792Z,100584.78
2023-01-04T19:53:33.229Z,100574.06
2023-01-04T19:55:59.708Z,100587.56
2023-01-04T19:58:26.194Z,100580.78
2023-01-04T20:00:55.078Z,100575.59
2023-01-04T20:03:23.433Z,100594.97
2023-01-04T20:05:50.295Z,100598.69
2023-01-04T20:08:16.842Z,100608.94
2023-01-04T20:10:43.305Z,100608.22
2023-01-04T20:13:09.684Z,100609.25
2023-01-04T20:15:39.518Z,100605.63
2023-01-04T20:18:11.926Z,100613.38
2023-01-04T20:20:44.961Z,100612.78
2023-01-04T20:23:12.082Z,100602.41
2023-01-04T20:25:43.315Z,100601.84
2023-01-04T20:28:10.037Z,100613.06
2023-01-04T20:30:36.867Z,100599.09
2023-01-04T20:33:03.736Z,100601.19
2023-01-04T20:35:31.207Z,100601.88
2023-01-04T20:37:58.830Z,100607.78
2023-01-04T20:40:26.871Z,100621.06
2023-01-04T20:43:11.939Z,100621.72
2023-01-04T20:45:46.025Z,100633.91
2023-01-04T20:48:13.008Z,100630.38
2023-01-04T20:50:39.702Z,100651.13
2023-01-04T20:53:06.616Z,100655.75
2023-01-04T20:55:40.003Z,100663.16
2023-01-04T20:58:11.946Z,100663.72
2023-01-04T21:00:39.024Z,100666.22
2023-01-04T21:03:06.904Z,100633.06
2023-01-04T21:05:42.173Z,100657.63
2023-01-04T21:08:09.378Z,100655.03
2023-01-04T21:10:36.360Z,100643.69
2023-01-04T21:13:03.741Z,100646.66
2023-01-04T21:15:30.325Z,100639.84
2023-01-04T21:17:56.747Z,100638.13
2023-01-04T21:20:24.435Z,100656.72
2023-01-04T21:22:51.055Z,100662.16
2023-01-04T21:25:17.477Z,100660.16
2023-01-04T21:27:43.903Z,100669.13
2023-01-04T21:30:10.792Z,100670.22
2023-01-04T21:32:37.193Z,100678.00
2023-01-04T21:35:03.844Z,100679.25
2023-01-04T21:37:30.222Z,100662.94
2023-01-04T21:39:56.604Z,100679.25
2023-01-04T21:42:22.985Z,100676.78
2023-01-04T21:44:49.377Z,100683.72
2023-01-04T21:47:15.946Z,100672.25
2023-01-04T21:49:43.877Z,100676.53
2023-01-04T21:52:11.177Z,100675.19
2023-01-04T21:54:38.315Z,100665.97
2023-01-04T21:57:05.103Z,100659.78
2023-01-04T21:59:31.543Z,100660.56
2023-01-04T22:01:58.121Z,100656.75
2023-01-04T22:04:24.672Z,100658.53
2023-01-04T22:06:51.098Z,100656.19
2023-01-04T22:09:17.473Z,100653.16
2023-01-04T22:11:43.916Z,100658.78
2023-01-04T22:14:10.430Z,100654.41
2023-01-04T22:16:36.898Z,100647.78
2023-01-04T22:19:03.379Z,100654.75
2023-01-04T22:21:30.651Z,100649.34
2023-01-04T22:23:57.369Z,100627.59
2023-01-04T22:26:23.944Z,100626.91
2023-01-04T22:28:50.325Z,100646.84
2023-01-04T22:31:16.748Z,100644.94
2023-01-04T22:33:43.473Z,100647.63
2023-01-04T22:36:21.668Z,100653.94
2023-01-04T22:38:49.841Z,100654.59
2023-01-04T22:41:17.226Z,100661.69
2023-01-04T22:43:43.942Z,100675.53
2023-01-04T22:46:13.338Z,100668.09
2023-01-04T22:48:39.757Z,100670.66
2023-01-04T22:51:07.669Z,100685.13
2023-01-04T22:53:34.470Z,100678.81
2023-01-04T22:56:22.357Z,100674.75
2023-01-04T22:58:54.161Z,100674.75
2023-01-04T23:01:26.017Z,100679.13
2023-01-04T23:03:52.669Z,100680.16
2023-01-04T23:06:19.751Z,100690.75
2023-01-04T23:08:46.164Z,100682.53
2023-01-04T23:11:17.504Z,100675.75
2023-01-04T23:13:44.265Z,100667.09
2023-01-04T23:16:13.513Z,100672.63
2023-01-04T23:18:40.093Z,100668.91
2023-01-04T23:21:06.756Z,100667.56
2023-01-04T23:23:33.204Z,100675.06
2023-01-04T23:26:13.108Z,100677.56
2023-01-04T23:28:39.553Z,100683.19
2023-01-04T23:31:07.751Z,100679.47
2023-01-04T23:33:36.681Z,100677.66
2023-01-04T23:36:23.881Z,100689.16
2023-01-04T23:38:55.590Z,100686.00
2023-01-04T23:41:42.510Z,100690.28
2023-01-04T23:44:14.842Z,100697.38
2023-01-04T23:46:41.858Z,100709.00
2023-01-04T23:49:08.399Z,100702.56
2023-01-04T23:51:34.922Z,100703.00
2023-01-04T23:54:01.331Z,100705.38
2023-01-04T23:56:27.695Z,100701.13
2023-01-04T23:58:54.073Z,100711.78
